Time;durP1;ratioP1;P1;durP2;ratioP2;P2;SDS_P1;SDS_P2;PMS_P1;PMS_P2;Temp;Humidity;BMP_temperature;BMP_pressure;BME280_temperature;BME280_humidity;BME280_pressure;Samples;Min_cycle;Max_cycle;Signal;HPM_P1;HPM_P2
2022/06/09 00:01:49;;;;;;;4.32;2.15;;;;;;;15.60;100.00;98872.19;5073309;28;20275;-75
2022/06/09 00:04:22;;;;;;;3.50;2.00;;;;;;;15.40;100.00;98874.00;5073290;28;20204;-76
2022/06/09 00:06:53;;;;;;;3.58;2.45;;;;;;;15.48;100.00;98879.56;5071789;28;20590;-76
2022/06/09 00:09:23;;;;;;;5.80;2.17;;;;;;;15.54;100.00;98878.19;5073783;28;20280;-77
2022/06/09 00:11:53;;;;;;;5.68;3.30;;;;;;;15.60;100.00;98891.19;5073446;28;20284;-76
2022/06/09 00:14:20;;;;;;;7.25;2.78;;;;;;;15.49;100.00;98886.75;5073293;28;20287;-76
2022/06/09 00:16:47;;;;;;;4.43;2.20;;;;;;;15.43;100.00;98882.72;5073688;28;20296;-76
2022/06/09 00:19:16;;;;;;;4.68;1.90;;;;;;;15.28;100.00;98883.22;5074087;28;20189;-76
2022/06/09 00:21:43;;;;;;;3.85;2.10;;;;;;;15.27;100.00;98890.50;5072629;28;20196;-76
2022/06/09 00:24:10;;;;;;;7.32;2.10;;;;;;;15.26;100.00;98885.22;5073750;28;20288;-76
2022/06/09 00:26:36;;;;;;;3.35;2.00;;;;;;;15.19;100.00;98884.88;5072858;28;20180;-77
2022/06/09 00:29:05;;;;;;;2.72;2.05;;;;;;;15.22;100.00;98882.78;5054587;28;20260;-76
2022/06/09 00:31:32;;;;;;;7.07;2.30;;;;;;;15.29;100.00;98890.38;5066816;28;20199;-77
2022/06/09 00:33:59;;;;;;;3.10;2.10;;;;;;;15.20;100.00;98886.63;5073136;28;20197;-77
2022/06/09 00:36:26;;;;;;;6.50;4.43;;;;;;;15.15;100.00;98880.72;5072709;28;20637;-76
2022/06/09 00:38:53;;;;;;;2.40;1.80;;;;;;;15.25;100.00;98889.78;5073018;28;20290;-75
2022/06/09 00:41:19;;;;;;;3.70;2.22;;;;;;;15.19;100.00;98888.44;5072930;28;20272;-75
2022/06/09 00:43:47;;;;;;;7.00;2.58;;;;;;;15.30;100.00;98901.06;5072626;28;20185;-75
2022/06/09 00:46:19;;;;;;;3.90;1.90;;;;;;;15.12;100.00;98884.56;5072653;28;20279;-76
2022/06/09 00:48:50;;;;;;;3.60;1.73;;;;;;;15.00;100.00;98891.94;5073011;28;20283;-76
2022/06/09 00:51:25;;;;;;;4.57;2.00;;;;;;;15.06;100.00;98898.69;5073235;28;20642;-76
2022/06/09 00:53:57;;;;;;;7.95;2.22;;;;;;;14.97;100.00;98905.78;5072261;28;20216;-76
2022/06/09 00:56:24;;;;;;;4.38;1.70;;;;;;;14.96;100.00;98900.47;5071328;28;20200;-77
2022/06/09 00:58:53;;;;;;;5.30;2.30;;;;;;;14.93;100.00;98898.91;5072831;28;20291;-77
2022/06/09 01:01:22;;;;;;;5.82;2.42;;;;;;;15.03;100.00;98904.34;5072248;28;20302;-76
2022/06/09 01:03:52;;;;;;;3.00;2.13;;;;;;;15.14;100.00;98900.72;5072617;28;20191;-76
2022/06/09 01:06:22;;;;;;;3.83;2.00;;;;;;;14.91;100.00;98902.72;5072123;28;20184;-76
2022/06/09 01:08:58;;;;;;;6.18;2.67;;;;;;;14.93;100.00;98914.31;5072240;28;20671;-76
2022/06/09 01:11:25;;;;;;;6.25;2.47;;;;;;;14.73;100.00;98914.16;5072613;28;20192;-76
2022/06/09 01:13:53;;;;;;;3.15;2.38;;;;;;;14.76;100.00;98915.75;5072247;28;20188;-76
2022/06/09 01:16:28;;;;;;;8.88;4.57;;;;;;;14.85;100.00;98920.38;5071638;28;20197;-76
2022/06/09 01:19:11;;;;;;;4.78;2.30;;;;;;;14.70;100.00;98919.00;5072740;28;20513;-76
2022/06/09 01:22:10;;;;;;;3.50;2.20;;;;;;;14.67;100.00;98921.97;5072327;28;20185;-76
2022/06/09 01:25:06;;;;;;;2.90;1.95;;;;;;;14.63;100.00;98924.09;5072021;28;20196;-76
2022/06/09 01:28:04;;;;;;;8.00;2.63;;;;;;;14.70;100.00;98924.44;5072612;28;20272;-76
2022/06/09 01:30:49;;;;;;;7.68;2.42;;;;;;;14.74;100.00;98915.03;5072140;28;20586;-76
2022/06/09 01:33:30;;;;;;;4.55;1.95;;;;;;;14.72;100.00;98923.31;5072213;28;20291;-76
2022/06/09 01:36:05;;;;;;;5.03;2.30;;;;;;;14.67;100.00;98930.94;5071915;28;20264;-76
2022/06/09 01:38:44;;;;;;;7.28;2.80;;;;;;;14.50;100.00;98936.94;5072068;28;20203;-76
2022/06/09 01:41:11;;;;;;;5.57;2.72;;;;;;;14.56;100.00;98931.00;5071604;28;20189;-76
2022/06/09 01:43:38;;;;;;;3.70;2.03;;;;;;;14.35;100.00;98930.94;5072190;28;20683;-76
2022/06/09 01:46:10;;;;;;;3.15;2.20;;;;;;;14.32;100.00;98940.19;5071416;28;20192;-76
2022/06/09 01:48:38;;;;;;;4.35;2.42;;;;;;;14.21;100.00;98933.97;5071999;28;20271;-75
2022/06/09 01:51:10;;;;;;;8.13;2.95;;;;;;;14.26;100.00;98946.13;5072021;28;20219;-76
2022/06/09 01:53:40;;;;;;;4.18;2.95;;;;;;;14.08;100.00;98953.06;5071503;28;20300;-76
2022/06/09 01:56:12;;;;;;;9.18;3.67;;;;;;;14.15;100.00;98959.69;5071680;28;20286;-75
2022/06/09 01:58:44;;;;;;;4.88;2.67;;;;;;;14.21;100.00;98956.47;5072330;28;20230;-76
2022/06/09 02:01:15;;;;;;;5.70;2.33;;;;;;;14.19;100.00;98958.44;5071664;28;20279;-76
2022/06/09 02:03:47;;;;;;;7.82;2.88;;;;;;;14.05;100.00;98954.19;5072456;28;20192;-76
2022/06/09 02:06:16;;;;;;;4.22;2.42;;;;;;;14.18;100.00;98957.59;5071989;28;20195;-75
2022/06/09 02:08:43;;;;;;;11.73;5.07;;;;;;;14.13;100.00;98958.94;5072091;28;20206;-76
2022/06/09 02:11:12;;;;;;;13.57;6.22;;;;;;;14.01;100.00;98960.00;5071717;28;20282;-76
2022/06/09 02:13:41;;;;;;;4.88;2.50;;;;;;;14.00;100.00;98960.94;5072097;28;20214;-75
2022/06/09 02:16:12;;;;;;;4.45;2.63;;;;;;;13.93;100.00;98957.91;5071618;28;20278;-76
2022/06/09 02:18:42;;;;;;;5.15;2.35;;;;;;;14.04;100.00;98968.72;5072183;28;20680;-76
2022/06/09 02:21:13;;;;;;;7.65;2.50;;;;;;;13.90;100.00;98967.13;5075569;28;20652;-77
2022/06/09 02:23:40;;;;;;;6.70;2.53;;;;;;;13.86;100.00;98975.63;5075462;28;20289;-77
2022/06/09 02:26:07;;;;;;;3.95;2.60;;;;;;;13.82;100.00;98980.44;5075520;28;20587;-76
2022/06/09 02:28:34;;;;;;;5.25;3.30;;;;;;;13.88;100.00;98971.81;5076245;28;20195;-75
2022/06/09 02:31:02;;;;;;;5.10;2.30;;;;;;;13.72;100.00;98974.91;5083428;28;20219;-75
2022/06/09 02:33:29;;;;;;;6.43;3.20;;;;;;;13.82;100.00;98982.28;5075481;28;20209;-76
2022/06/09 02:35:57;;;;;;;5.65;2.45;;;;;;;13.90;100.00;98991.47;5074901;28;20278;-76
2022/06/09 02:38:24;;;;;;;5.38;2.72;;;;;;;13.79;100.00;98983.38;5075349;28;20351;-76
2022/06/09 02:40:54;;;;;;;6.20;2.55;;;;;;;13.93;100.00;98985.84;5075969;28;20307;-76
2022/06/09 02:43:20;;;;;;;6.25;2.85;;;;;;;13.65;100.00;98989.06;5075289;28;20207;-77
2022/06/09 02:45:47;;;;;;;6.60;3.20;;;;;;;13.76;100.00;98986.34;5075115;28;20204;-76
2022/06/09 02:48:14;;;;;;;6.03;2.33;;;;;;;13.83;100.00;98989.41;5075085;28;20636;-76
2022/06/09 02:50:42;;;;;;;11.38;3.10;;;;;;;13.80;100.00;98995.09;5074833;28;20690;-75
2022/06/09 02:53:10;;;;;;;4.97;2.83;;;;;;;13.72;100.00;98996.53;5074236;28;20194;-77
2022/06/09 02:55:37;;;;;;;8.20;2.40;;;;;;;13.76;100.00;98994.47;5074386;28;20185;-75
2022/06/09 02:58:04;;;;;;;4.45;2.80;;;;;;;13.69;100.00;98993.25;5074801;28;20301;-76
2022/06/09 03:00:30;;;;;;;6.53;3.20;;;;;;;13.73;100.00;98990.16;5074853;28;20281;-76
2022/06/09 03:02:59;;;;;;;9.75;3.53;;;;;;;13.60;100.00;98989.44;5074627;28;20277;-77
2022/06/09 03:05:28;;;;;;;6.05;4.13;;;;;;;13.53;100.00;98999.88;5074461;28;20210;-75
2022/06/09 03:07:55;;;;;;;11.73;3.45;;;;;;;13.59;100.00;99003.06;5074809;28;20192;-77
2022/06/09 03:10:23;;;;;;;6.65;4.03;;;;;;;13.61;100.00;99006.50;5074837;28;20747;-75
2022/06/09 03:12:50;;;;;;;7.22;3.00;;;;;;;13.64;100.00;99008.97;5073988;28;20274;-75
2022/06/09 03:15:20;;;;;;;7.13;3.17;;;;;;;13.78;100.00;99003.31;5075156;28;20606;-75
2022/06/09 03:17:46;;;;;;;11.90;2.78;;;;;;;13.75;100.00;98996.31;5074675;28;20230;-76
2022/06/09 03:20:15;;;;;;;7.65;2.80;;;;;;;13.72;100.00;98996.53;5075171;28;20200;-76
2022/06/09 03:22:42;;;;;;;7.85;2.60;;;;;;;13.55;100.00;99003.31;5073353;28;20201;-76
2022/06/09 03:25:09;;;;;;;7.80;3.00;;;;;;;13.60;100.00;99005.66;5074619;28;20188;-76
2022/06/09 03:27:37;;;;;;;11.98;4.07;;;;;;;13.55;100.00;99010.56;5074735;28;20289;-76
2022/06/09 03:30:05;;;;;;;15.05;3.20;;;;;;;13.56;100.00;99009.59;5074298;28;20257;-75
2022/06/09 03:32:31;;;;;;;8.43;2.53;;;;;;;13.62;100.00;99008.25;5074017;28;20271;-76
2022/06/09 03:34:59;;;;;;;10.40;3.20;;;;;;;13.46;100.00;99019.44;5073312;28;20285;-76
2022/06/09 03:37:25;;;;;;;7.85;2.42;;;;;;;13.45;100.00;99015.84;5074314;28;20277;-76
2022/06/09 03:39:52;;;;;;;7.15;2.45;;;;;;;13.40;100.00;99011.78;5074418;28;20292;-76
2022/06/09 03:42:19;;;;;;;8.02;2.90;;;;;;;13.35;100.00;99015.72;5074216;28;20651;-76
2022/06/09 03:44:47;;;;;;;9.65;3.25;;;;;;;13.30;100.00;99015.22;5074278;28;20741;-76
2022/06/09 03:47:13;;;;;;;5.43;2.70;;;;;;;13.38;100.00;99020.00;5073712;28;20191;-76
2022/06/09 03:49:40;;;;;;;5.13;2.55;;;;;;;13.43;100.00;99023.25;5073724;28;20222;-76
2022/06/09 03:52:07;;;;;;;12.25;3.83;;;;;;;13.55;100.00;99024.09;5074012;28;20270;-76
2022/06/09 03:54:34;;;;;;;4.28;2.20;;;;;;;13.49;100.00;99025.44;5073665;28;20277;-76
2022/06/09 03:57:01;;;;;;;7.70;5.35;;;;;;;13.40;100.00;99031.56;5074025;28;20290;-76
2022/06/09 03:59:27;;;;;;;5.95;2.50;;;;;;;13.54;100.00;99030.47;5073078;28;20216;-75
2022/06/09 04:01:55;;;;;;;6.05;2.20;;;;;;;13.42;100.00;99028.75;5074288;28;20615;-76
2022/06/09 04:04:22;;;;;;;15.18;8.48;;;;;;;13.37;100.00;99031.81;5074273;28;20209;-77
2022/06/09 04:06:49;;;;;;;7.22;3.45;;;;;;;13.37;100.00;99039.94;5073562;28;20733;-77
2022/06/09 04:09:16;;;;;;;9.48;2.88;;;;;;;13.37;100.00;99052.59;5061180;28;20199;-78
2022/06/09 04:11:43;;;;;;;6.80;2.40;;;;;;;13.41;100.00;99057.66;5073163;28;20273;-77
2022/06/09 04:14:09;;;;;;;10.45;3.10;;;;;;;13.50;100.00;99045.22;5073157;28;20286;-77
2022/06/09 04:16:39;;;;;;;8.60;2.83;;;;;;;13.50;100.00;99047.91;5073215;28;20294;-77
2022/06/09 04:19:10;;;;;;;6.18;2.75;;;;;;;13.68;100.00;99048.31;5072939;28;20306;-78
2022/06/09 04:21:37;;;;;;;6.97;2.85;;;;;;;13.51;100.00;99055.94;5073180;28;20192;-78
2022/06/09 04:24:04;;;;;;;4.20;2.30;;;;;;;13.52;100.00;99060.38;5073513;28;20326;-76
2022/06/09 04:26:33;;;;;;;7.47;2.65;;;;;;;13.56;100.00;99069.94;5073067;28;20537;-77
2022/06/09 04:29:00;;;;;;;8.90;3.60;;;;;;;13.61;100.00;99061.47;5073104;28;20239;-77
2022/06/09 04:31:27;;;;;;;9.25;3.67;;;;;;;13.64;100.00;99061.25;5073562;28;21061;-77
2022/06/09 04:33:53;;;;;;;8.02;2.80;;;;;;;13.64;100.00;99066.66;5073414;28;20293;-77
2022/06/09 04:36:22;;;;;;;7.63;3.15;;;;;;;13.81;100.00;99072.56;5072756;28;20209;-77
2022/06/09 04:38:48;;;;;;;11.65;2.40;;;;;;;13.52;100.00;99068.47;5073063;28;20336;-77
2022/06/09 04:41:16;;;;;;;8.25;3.10;;;;;;;13.49;100.00;99079.53;5073511;28;20957;-75
2022/06/09 04:43:45;;;;;;;12.45;6.55;;;;;;;13.52;100.00;99079.31;5072655;28;20187;-75
2022/06/09 04:46:15;;;;;;;8.32;2.85;;;;;;;13.58;100.00;99087.91;5072968;28;20678;-76
2022/06/09 04:48:42;;;;;;;10.95;5.38;;;;;;;13.80;100.00;99085.22;5073074;28;20274;-75
2022/06/09 04:51:11;;;;;;;7.30;2.42;;;;;;;13.70;100.00;99086.94;5073325;28;20282;-75
2022/06/09 04:53:40;;;;;;;6.88;3.58;;;;;;;13.88;100.00;99087.31;5073182;28;20575;-75
2022/06/09 04:56:08;;;;;;;6.38;3.00;;;;;;;13.90;100.00;99082.63;5073111;28;20196;-74
2022/06/09 04:58:38;;;;;;;12.57;4.28;;;;;;;14.03;100.00;99079.81;5072883;28;20211;-77
2022/06/09 05:01:05;;;;;;;12.35;3.70;;;;;;;14.16;100.00;99080.53;5072067;28;20195;-76
2022/06/09 05:03:32;;;;;;;6.82;3.67;;;;;;;13.99;100.00;99090.00;5072299;28;20241;-76
2022/06/09 05:06:01;;;;;;;11.52;4.22;;;;;;;13.86;100.00;99087.44;5072598;28;20195;-74
2022/06/09 05:08:28;;;;;;;8.70;3.40;;;;;;;13.80;100.00;99098.75;5072688;28;20561;-76
2022/06/09 05:10:56;;;;;;;11.68;4.15;;;;;;;13.65;100.00;99103.53;5072612;28;20269;-75
2022/06/09 05:13:23;;;;;;;8.48;3.75;;;;;;;13.61;100.00;99110.16;5072425;28;20644;-75
2022/06/09 05:15:52;;;;;;;14.85;4.18;;;;;;;13.74;100.00;99096.53;5072114;28;20268;-75
2022/06/09 05:18:20;;;;;;;10.63;3.70;;;;;;;13.84;100.00;99100.25;5071525;28;20239;-75
2022/06/09 05:20:48;;;;;;;9.98;4.55;;;;;;;13.90;100.00;99107.00;5072496;28;20199;-75
2022/06/09 05:23:15;;;;;;;14.27;8.98;;;;;;;14.00;100.00;99115.22;5071975;28;20317;-75
2022/06/09 05:25:41;;;;;;;9.13;4.38;;;;;;;14.17;100.00;99112.03;5072282;28;20333;-75
2022/06/09 05:28:09;;;;;;;7.40;3.33;;;;;;;14.33;100.00;99106.25;5071487;28;20206;-75
2022/06/09 05:30:36;;;;;;;11.30;3.13;;;;;;;14.59;100.00;99106.84;5071713;28;20235;-75
2022/06/09 05:33:03;;;;;;;10.15;3.25;;;;;;;14.66;100.00;99108.06;5072099;28;20328;-75
2022/06/09 05:35:30;;;;;;;13.50;4.78;;;;;;;14.44;100.00;99106.22;5071634;28;20354;-75
2022/06/09 05:46:15;;;;;;;5.53;3.10;;;;;;;14.84;100.00;99121.94;5071554;28;20290;-75
2022/06/09 05:48:42;;;;;;;7.80;3.10;;;;;;;14.62;100.00;99125.56;5071657;28;20287;-75
2022/06/09 05:51:09;;;;;;;12.48;3.80;;;;;;;14.73;100.00;99130.09;5071472;28;20282;-75
2022/06/09 05:53:36;;;;;;;6.80;3.17;;;;;;;14.94;100.00;99130.16;5071044;28;20729;-75
2022/06/09 05:56:03;;;;;;;11.50;3.20;;;;;;;14.82;100.00;99126.63;5071424;28;20198;-75
2022/06/09 05:58:31;;;;;;;10.40;2.95;;;;;;;14.85;100.00;99130.91;5071522;28;20557;-76
2022/06/09 06:00:58;;;;;;;7.00;2.75;;;;;;;14.98;100.00;99135.19;5071148;28;20209;-76
2022/06/09 06:03:25;;;;;;;5.40;2.75;;;;;;;15.11;100.00;99140.44;5071151;28;20189;-76
2022/06/09 06:08:35;;;;;;;6.28;2.80;;;;;;;15.03;100.00;99145.66;5071311;28;20184;-75
2022/06/09 06:11:02;;;;;;;8.60;3.45;;;;;;;14.95;100.00;99150.88;5071546;28;20214;-76
2022/06/09 06:13:29;;;;;;;7.63;3.05;;;;;;;14.85;100.00;99141.75;5071194;28;20185;-76
2022/06/09 06:15:57;;;;;;;15.88;3.75;;;;;;;14.95;100.00;99157.13;5071056;28;20296;-75
2022/06/09 06:18:24;;;;;;;8.88;3.47;;;;;;;15.02;100.00;99157.50;5070859;28;20243;-75
2022/06/09 06:20:51;;;;;;;9.48;3.78;;;;;;;15.25;100.00;99165.53;5071022;28;20212;-76
2022/06/09 06:23:18;;;;;;;9.40;3.88;;;;;;;15.39;100.00;99167.94;5071059;28;20276;-75
2022/06/09 06:25:45;;;;;;;12.50;4.78;;;;;;;15.29;100.00;99175.16;5071174;28;20242;-75
2022/06/09 06:28:12;;;;;;;7.07;3.10;;;;;;;15.37;100.00;99175.34;5071212;28;20617;-76
2022/06/09 06:30:38;;;;;;;11.68;3.90;;;;;;;15.20;100.00;99171.34;5070846;28;20328;-75
2022/06/09 06:33:07;;;;;;;8.70;3.00;;;;;;;15.71;100.00;99180.63;5070994;28;20216;-75
2022/06/09 06:35:33;;;;;;;10.10;3.20;;;;;;;15.54;100.00;99180.22;5071112;28;20726;-75
2022/06/09 06:38:00;;;;;;;7.63;3.60;;;;;;;15.48;100.00;99188.84;5070660;28;20294;-75
2022/06/09 06:40:27;;;;;;;9.48;3.55;;;;;;;15.40;100.00;99185.97;5070819;28;20204;-76
2022/06/09 06:42:54;;;;;;;10.32;3.30;;;;;;;15.77;100.00;99185.53;5070990;28;20200;-75
2022/06/09 06:45:20;;;;;;;12.40;4.50;;;;;;;15.68;100.00;99189.03;5071041;28;20196;-76
2022/06/09 06:47:47;;;;;;;7.45;2.95;;;;;;;15.79;100.00;99189.00;5070866;28;20280;-76
2022/06/09 06:50:16;;;;;;;9.27;3.50;;;;;;;15.20;100.00;99195.75;5070955;28;20201;-74
2022/06/09 06:52:43;;;;;;;6.72;2.85;;;;;;;15.25;100.00;99187.25;5070890;28;20193;-74
2022/06/09 06:55:14;;;;;;;7.50;3.47;;;;;;;15.64;100.00;99197.41;5070911;28;20254;-76
2022/06/09 06:57:40;;;;;;;8.30;3.70;;;;;;;15.75;100.00;99192.97;5071037;28;20177;-75
2022/06/09 07:00:10;;;;;;;8.60;3.33;;;;;;;15.81;100.00;99197.88;5070524;28;20241;-75
2022/06/09 07:02:36;;;;;;;5.85;2.85;;;;;;;16.20;100.00;99196.22;5070873;28;20204;-75
2022/06/09 07:05:03;;;;;;;5.45;2.60;;;;;;;16.26;100.00;99206.56;5070595;28;20272;-76
2022/06/09 07:07:34;;;;;;;7.15;2.85;;;;;;;15.83;100.00;99204.88;5072811;28;20303;-75
2022/06/09 07:10:00;;;;;;;7.65;3.03;;;;;;;15.55;100.00;99200.06;5074594;28;20185;-75
2022/06/09 07:12:27;;;;;;;7.38;3.53;;;;;;;15.79;100.00;99205.28;5074287;28;20311;-75
2022/06/09 07:14:54;;;;;;;12.35;3.40;;;;;;;15.87;100.00;99210.03;5074455;28;20685;-75
2022/06/09 07:17:20;;;;;;;11.55;3.33;;;;;;;15.96;100.00;99212.81;5074380;28;20315;-75
2022/06/09 07:19:47;;;;;;;8.10;3.20;;;;;;;16.21;100.00;99218.81;5074372;28;20678;-75
2022/06/09 07:22:14;;;;;;;7.40;3.03;;;;;;;16.03;100.00;99214.03;5073852;28;20197;-75
2022/06/09 07:24:43;;;;;;;13.48;4.25;;;;;;;15.64;100.00;99216.41;5074287;28;20279;-74
2022/06/09 07:27:10;;;;;;;5.93;3.20;;;;;;;15.47;100.00;99214.28;5074066;28;20251;-75
2022/06/09 07:29:36;;;;;;;12.27;4.07;;;;;;;15.76;100.00;99219.97;5073678;28;20232;-75
2022/06/09 07:32:04;;;;;;;10.00;3.25;;;;;;;15.78;100.00;99214.41;5073690;28;20312;-75
2022/06/09 07:34:30;;;;;;;10.05;4.00;;;;;;;15.76;100.00;99228.13;5074325;28;20995;-75
2022/06/09 07:36:57;;;;;;;7.78;3.30;;;;;;;15.42;100.00;99227.34;5074146;28;20598;-75
2022/06/09 07:39:24;;;;;;;13.40;4.00;;;;;;;15.42;100.00;99230.94;5073928;28;20350;-75
2022/06/09 07:41:52;;;;;;;7.65;3.33;;;;;;;15.60;100.00;99236.69;5073618;28;20192;-76
2022/06/09 07:44:20;;;;;;;11.05;4.30;;;;;;;15.64;100.00;99237.25;5073687;28;20571;-75
2022/06/09 07:46:46;;;;;;;6.85;3.67;;;;;;;15.55;100.00;99238.91;5073348;28;20295;-74
2022/06/09 07:49:13;;;;;;;8.48;4.07;;;;;;;15.55;100.00;99241.59;5073567;28;20612;-75
2022/06/09 07:51:41;;;;;;;10.95;3.85;;;;;;;15.67;100.00;99238.84;5073668;28;20545;-75
2022/06/09 07:54:08;;;;;;;8.27;3.40;;;;;;;15.67;100.00;99250.59;5073262;28;20197;-74
2022/06/09 07:56:35;;;;;;;9.13;3.88;;;;;;;15.56;100.00;99250.63;5073276;28;20224;-75
2022/06/09 07:59:07;;;;;;;9.50;3.75;;;;;;;15.48;100.00;99240.41;5073142;28;20207;-76
2022/06/09 08:01:34;;;;;;;6.50;3.75;;;;;;;15.61;100.00;99251.09;5073326;28;20535;-75
2022/06/09 08:04:01;;;;;;;10.38;5.63;;;;;;;15.47;100.00;99254.97;5072820;28;20231;-75
2022/06/09 08:06:28;;;;;;;6.60;3.85;;;;;;;15.93;100.00;99252.94;5072756;28;20299;-75
2022/06/09 08:08:57;;;;;;;13.13;6.75;;;;;;;16.14;100.00;99251.09;5072846;28;20184;-75
2022/06/09 08:11:25;;;;;;;9.35;3.95;;;;;;;16.03;100.00;99251.16;5073237;28;20204;-75
2022/06/09 08:13:51;;;;;;;6.35;3.40;;;;;;;15.86;100.00;99260.75;5072823;28;20180;-75
2022/06/09 08:16:20;;;;;;;6.38;3.72;;;;;;;16.14;100.00;99259.22;5073014;28;20276;-75
2022/06/09 08:18:47;;;;;;;9.02;3.85;;;;;;;16.39;100.00;99268.84;5072071;28;20191;-75
2022/06/09 08:21:14;;;;;;;10.57;4.10;;;;;;;15.96;100.00;99266.25;5072964;28;20226;-75
2022/06/09 08:23:41;;;;;;;12.55;6.13;;;;;;;15.82;100.00;99270.16;5071758;28;20200;-75
2022/06/09 08:26:08;;;;;;;4.30;3.55;;;;;;;15.85;100.00;99275.31;5072424;28;20220;-75
2022/06/09 08:28:34;;;;;;;8.70;4.95;;;;;;;15.88;100.00;99277.78;5072488;28;20223;-75
2022/06/09 08:31:01;;;;;;;10.10;4.93;;;;;;;15.94;100.00;99279.97;5072470;28;20268;-75
2022/06/09 08:33:29;;;;;;;9.98;3.58;;;;;;;16.05;100.00;99285.34;5071585;28;20200;-75
2022/06/09 08:35:56;;;;;;;8.57;4.18;;;;;;;16.37;100.00;99288.97;5072206;28;20280;-75
2022/06/09 08:38:23;;;;;;;9.93;4.90;;;;;;;16.42;100.00;99295.75;5072036;28;20192;-75
2022/06/09 08:40:56;;;;;;;8.63;4.90;;;;;;;16.31;100.00;99294.97;5072478;28;20220;-76
2022/06/09 08:43:32;;;;;;;6.35;4.00;;;;;;;16.44;100.00;99293.75;5072633;28;20615;-75
2022/06/09 08:46:05;;;;;;;8.73;4.10;;;;;;;16.68;98.88;99295.28;5072300;28;20509;-75
2022/06/09 08:48:39;;;;;;;9.35;4.88;;;;;;;16.77;99.11;99299.91;5072271;28;20260;-75
2022/06/09 08:51:12;;;;;;;8.50;3.50;;;;;;;16.19;100.00;99303.19;5072480;28;20591;-75
2022/06/09 08:53:45;;;;;;;8.98;3.70;;;;;;;16.48;100.00;99310.63;5072407;28;20272;-75
2022/06/09 08:56:17;;;;;;;7.30;3.60;;;;;;;16.65;100.00;99307.31;5072424;28;20272;-75
2022/06/09 08:58:48;;;;;;;4.53;2.90;;;;;;;16.99;97.83;99304.34;5072133;28;20623;-76
2022/06/09 09:01:24;;;;;;;7.70;3.50;;;;;;;17.21;96.82;99316.88;5071814;28;20291;-75
2022/06/09 09:03:57;;;;;;;3.95;3.05;;;;;;;17.05;96.49;99313.84;5072167;28;20288;-75
2022/06/09 09:06:28;;;;;;;8.90;3.30;;;;;;;17.35;96.13;99328.38;5071753;28;20239;-76
2022/06/09 09:08:59;;;;;;;7.63;3.50;;;;;;;17.39;93.65;99324.34;5072217;28;20594;-74
2022/06/09 09:11:41;;;;;;;14.05;4.20;;;;;;;17.21;94.61;99326.91;5072014;28;20192;-74
2022/06/09 09:14:14;;;;;;;11.70;6.25;;;;;;;17.34;94.75;99326.66;5071708;28;20217;-75
2022/06/09 09:16:48;;;;;;;10.32;3.53;;;;;;;17.84;91.77;99321.16;5072076;28;20186;-75
2022/06/09 09:19:25;;;;;;;6.72;3.38;;;;;;;18.32;89.12;99329.34;5071235;28;20241;-75
2022/06/09 09:22:03;;;;;;;9.52;4.00;;;;;;;18.25;87.51;99325.50;5071577;28;20198;-74
2022/06/09 09:24:40;;;;;;;6.50;4.50;;;;;;;17.86;90.70;99332.78;5071586;28;20196;-75
2022/06/09 09:27:23;;;;;;;10.13;4.60;;;;;;;17.69;91.70;99316.13;5071721;28;20547;-76
2022/06/09 09:29:58;;;;;;;9.23;3.22;;;;;;;18.01;88.35;99327.78;5069725;28;20239;-76
2022/06/09 09:32:29;;;;;;;7.57;3.20;;;;;;;18.15;85.25;99334.66;5067445;28;20283;-76
2022/06/09 09:34:58;;;;;;;9.75;4.40;;;;;;;18.24;81.40;99342.81;5071832;28;20617;-77
2022/06/09 09:37:29;;;;;;;6.00;2.92;;;;;;;17.89;85.64;99335.25;5071648;28;20262;-76
2022/06/09 09:39:59;;;;;;;4.45;2.95;;;;;;;18.51;80.27;99338.50;5071612;28;20209;-76
2022/06/09 09:42:33;;;;;;;9.98;2.70;;;;;;;18.98;76.44;99340.44;5067838;28;20199;-76
2022/06/09 09:45:05;;;;;;;6.97;3.33;;;;;;;18.14;79.56;99344.72;5071386;28;20262;-75
2022/06/09 09:47:33;;;;;;;6.63;3.03;;;;;;;18.01;80.91;99341.41;5071151;28;20185;-75
2022/06/09 09:50:08;;;;;;;7.22;3.10;;;;;;;18.51;78.65;99342.06;5070577;28;20192;-75
2022/06/09 09:52:41;;;;;;;5.10;3.85;;;;;;;19.09;75.30;99340.25;5070891;28;20197;-75
2022/06/09 09:55:33;;;;;;;9.68;3.42;;;;;;;18.95;75.26;99334.25;5071567;28;20206;-75
2022/06/09 09:58:21;;;;;;;7.18;3.53;;;;;;;18.93;76.34;99347.19;5070426;28;20846;-75
2022/06/09 10:00:51;;;;;;;8.68;3.38;;;;;;;18.52;79.46;99360.16;5054232;28;20211;-74
2022/06/09 10:09:10;;;;;;;8.25;3.20;;;;;;;18.57;76.51;99358.88;5070520;28;20491;-75
2022/06/09 10:11:57;;;;;;;7.75;2.70;;;;;;;18.90;74.03;99354.78;5070176;28;20194;-76
2022/06/09 10:14:45;;;;;;;6.68;2.97;;;;;;;18.62;74.46;99353.84;5070023;28;20183;-75
2022/06/09 10:17:27;;;;;;;8.65;3.42;;;;;;;18.69;73.36;99355.81;5070661;28;20202;-76
2022/06/09 10:20:01;;;;;;;8.13;3.60;;;;;;;18.39;77.60;99358.75;5070682;28;20210;-75
2022/06/09 10:22:33;;;;;;;6.70;2.58;;;;;;;18.24;78.28;99359.19;5071002;28;20193;-76
2022/06/09 10:25:02;;;;;;;10.18;3.17;;;;;;;18.15;81.02;99359.19;5070434;28;20277;-76
2022/06/09 10:27:35;;;;;;;6.05;2.60;;;;;;;18.76;77.33;99364.28;5070450;28;20266;-76
2022/06/09 10:30:09;;;;;;;5.75;2.95;;;;;;;18.96;74.39;99360.50;5070027;28;20549;-76
2022/06/09 10:32:43;;;;;;;4.13;2.40;;;;;;;19.52;69.10;99344.19;5070418;28;20710;-77
2022/06/09 10:35:19;;;;;;;4.88;2.67;;;;;;;19.87;65.82;99353.47;5070560;28;20275;-77
2022/06/09 10:37:52;;;;;;;5.65;3.30;;;;;;;20.41;63.92;99346.13;5069631;28;20645;-76
2022/06/09 10:40:23;;;;;;;9.00;2.75;;;;;;;20.28;63.86;99348.41;5071719;28;20217;-76
2022/06/09 10:42:57;;;;;;;7.40;4.20;;;;;;;19.86;64.63;99349.03;5088598;28;20625;-75
2022/06/09 10:45:27;;;;;;;7.15;2.70;;;;;;;20.05;65.18;99351.59;5073917;28;20434;-76
2022/06/09 10:56:39;;;;;;;6.57;2.40;;;;;;;19.46;69.06;99359.28;5072014;28;20238;-75
2022/06/09 10:59:12;;;;;;;6.70;3.07;;;;;;;19.73;69.18;99368.53;5069652;28;20514;-76
2022/06/09 11:01:39;;;;;;;6.07;3.17;;;;;;;19.64;69.33;99370.25;5069314;28;21026;-74
2022/06/09 11:04:11;;;;;;;8.30;2.78;;;;;;;19.19;68.79;99381.97;5073860;28;20207;-74
2022/06/09 11:07:10;;;;;;;4.13;2.42;;;;;;;19.28;68.82;99383.81;5072566;28;20195;-76
2022/06/09 11:09:47;;;;;;;6.13;2.90;;;;;;;19.20;67.92;99386.44;5060569;28;20196;-75
2022/06/09 11:12:24;;;;;;;4.93;2.60;;;;;;;19.38;64.33;99383.78;5073914;28;20443;-75
2022/06/09 11:15:03;;;;;;;8.73;3.15;;;;;;;19.18;67.88;99377.53;5073926;28;20275;-75
2022/06/09 11:17:54;;;;;;;10.87;3.20;;;;;;;19.58;65.91;99370.88;5073142;28;20554;-76
2022/06/09 11:20:32;;;;;;;5.20;2.50;;;;;;;20.26;63.86;99381.38;5073871;28;20462;-76
2022/06/09 11:23:13;;;;;;;7.70;2.90;;;;;;;20.51;62.16;99368.78;5053744;28;20192;-75
2022/06/09 11:25:53;;;;;;;10.30;2.57;;;;;;;20.84;60.33;99379.97;5065376;28;20846;-76
2022/06/09 11:28:30;;;;;;;5.83;2.77;;;;;;;20.60;62.43;99378.78;5073904;28;20450;-76
2022/06/09 11:31:18;;;;;;;4.40;2.30;;;;;;;20.99;58.40;99383.84;5073645;28;20525;-75
2022/06/09 11:34:00;;;;;;;4.43;2.30;;;;;;;20.56;60.35;99380.13;5073442;28;20466;-75
2022/06/09 11:36:33;;;;;;;4.40;1.97;;;;;;;20.40;58.82;99379.97;5072094;28;20923;-75
2022/06/09 11:39:17;;;;;;;5.57;1.80;;;;;;;20.48;54.21;99376.41;5073590;28;20427;-76
2022/06/09 11:41:57;;;;;;;6.70;2.40;;;;;;;20.49;53.89;99380.91;5073032;28;20471;-76
2022/06/09 11:44:27;;;;;;;7.20;2.70;;;;;;;20.95;51.65;99379.72;5073407;28;20443;-75
2022/06/09 11:46:58;;;;;;;5.77;1.90;;;;;;;21.33;50.37;99373.94;5072869;28;20435;-76
2022/06/09 11:49:30;;;;;;;4.00;2.00;;;;;;;21.25;51.04;99374.75;5073004;28;20419;-75
2022/06/09 11:52:00;;;;;;;7.00;2.00;;;;;;;21.47;50.68;99376.09;5071809;28;20438;-75
2022/06/09 11:54:58;;;;;;;8.10;2.60;;;;;;;21.92;50.80;99374.88;5073235;28;20977;-75
2022/06/09 11:57:43;;;;;;;5.80;2.40;;;;;;;21.54;51.97;99385.34;5073461;28;20749;-76
2022/06/09 12:00:42;;;;;;;8.40;3.00;;;;;;;20.67;55.27;99383.59;5070845;28;20601;-75
2022/06/09 12:03:28;;;;;;;9.70;2.33;;;;;;;20.36;57.23;99373.09;5072649;28;20848;-75
2022/06/09 12:06:00;;;;;;;6.07;1.77;;;;;;;20.51;57.11;99384.31;5073123;28;20522;-75
2022/06/09 12:08:38;;;;;;;6.17;3.17;;;;;;;20.41;58.22;99378.94;5072925;28;20968;-75